createdAt,value
2019-05-01T00:00:18.869Z,101680.52
2019-05-01T00:03:04.476Z,101685.86
2019-05-01T00:05:37.312Z,101680.52
2019-05-01T00:08:06.393Z,101677.01
2019-05-01T00:10:35.760Z,101677.01
2019-05-01T00:13:05.624Z,101672.67
2019-05-01T00:15:36.056Z,101663.86
2019-05-01T00:18:05.367Z,101663.86
2019-05-01T00:20:33.790Z,101660.34
2019-05-01T00:23:02.239Z,101665.19
2019-05-01T00:25:30.725Z,101663.17
2019-05-01T00:27:59.111Z,101659.69
2019-05-01T00:30:30.265Z,101656.69
2019-05-01T00:32:59.140Z,101656.83
2019-05-01T00:35:27.557Z,101651.16
2019-05-01T00:37:55.993Z,101644.16
2019-05-01T00:40:24.795Z,101653.15
2019-05-01T00:42:53.434Z,101645.15
2019-05-01T00:45:21.895Z,101645.15
2019-05-01T00:47:50.348Z,101645.48
2019-05-01T00:50:18.783Z,101638.80
2019-05-01T00:52:47.208Z,101631.15
2019-05-01T00:55:34.126Z,101630.47
2019-05-01T00:58:18.936Z,101633.47
2019-05-01T01:00:49.057Z,101625.48
2019-05-01T01:03:17.722Z,101625.14
2019-05-01T01:05:46.249Z,101621.99
2019-05-01T01:08:14.717Z,101618.14
2019-05-01T01:10:43.147Z,101622.65
2019-05-01T01:13:11.571Z,101616.13
2019-05-01T01:15:40.055Z,101610.45
2019-05-01T01:18:08.510Z,101607.97
2019-05-01T01:20:36.920Z,101603.16
2019-05-01T01:23:05.523Z,101605.12
2019-05-01T01:25:34.307Z,101598.80
2019-05-01T01:28:02.810Z,101602.66
2019-05-01T01:30:31.276Z,101598.80
2019-05-01T01:32:59.948Z,101603.45
2019-05-01T01:35:28.443Z,101599.16
2019-05-01T01:37:57.134Z,101595.47
2019-05-01T01:40:25.551Z,101599.80
2019-05-01T01:42:56.650Z,101595.47
2019-05-01T01:45:31.775Z,101597.65
2019-05-01T01:48:14.197Z,101603.80
2019-05-01T01:50:45.174Z,101587.33
2019-05-01T01:53:16.174Z,101588.14
2019-05-01T01:55:45.440Z,101582.50
2019-05-01T01:58:15.507Z,101591.68
2019-05-01T02:00:45.797Z,101585.18
2019-05-01T02:03:14.262Z,101582.85
2019-05-01T02:05:44.727Z,101574.03
2019-05-01T02:08:13.513Z,101561.84
2019-05-01T02:13:12.953Z,101564.52
2019-05-01T02:15:41.590Z,101564.52
2019-05-01T02:18:10.019Z,101556.86
2019-05-01T02:20:38.491Z,101559.86
2019-05-01T02:23:07.042Z,101554.53
2019-05-01T02:25:37.452Z,101554.53
2019-05-01T02:28:26.231Z,101553.86
2019-05-01T02:31:26.970Z,101547.53
2019-05-01T02:33:45.200Z,101541.52
2019-05-01T02:36:16.479Z,101543.19
2019-05-01T02:38:47.179Z,101544.86
2019-05-01T02:41:17.045Z,101548.52
2019-05-01T02:43:48.522Z,101550.85
2019-05-01T02:46:19.374Z,101544.19
2019-05-01T02:48:53.847Z,101541.52
2019-05-01T02:51:23.909Z,101540.87
2019-05-01T02:53:53.070Z,101543.87
2019-05-01T02:56:26.162Z,101542.53
2019-05-01T02:58:57.595Z,101547.86
2019-05-01T03:01:26.809Z,101542.53
2019-05-01T03:03:58.010Z,101541.54
2019-05-01T03:06:29.192Z,101540.20
2019-05-01T03:08:59.815Z,101545.54
2019-05-01T03:11:29.538Z,101538.05
2019-05-01T03:14:01.025Z,101533.55
2019-05-01T03:16:31.615Z,101526.55
2019-05-01T03:19:05.598Z,101520.54
2019-05-01T03:21:36.029Z,101526.88
2019-05-01T03:24:06.204Z,101522.22
2019-05-01T03:26:36.103Z,101521.23
2019-05-01T03:29:06.575Z,101519.55
2019-05-01T03:31:35.165Z,101518.56
2019-05-01T03:34:03.819Z,101514.23
2019-05-01T03:36:32.864Z,101508.89
2019-05-01T03:39:01.396Z,101507.90
2019-05-01T03:41:30.278Z,101516.56
2019-05-01T03:43:59.724Z,101505.91
2019-05-01T03:46:28.521Z,101508.91
2019-05-01T03:48:57.655Z,101507.91
2019-05-01T03:51:26.627Z,101509.91
2019-05-01T03:53:55.062Z,101507.59
2019-05-01T03:56:23.691Z,101508.92
2019-05-01T03:58:52.131Z,101516.25
2019-05-01T04:01:28.319Z,101504.58
2019-05-01T04:04:02.651Z,101506.09
2019-05-01T04:06:31.326Z,101507.23
2019-05-01T04:09:00.286Z,101515.22
2019-05-01T04:11:28.797Z,101505.22
2019-05-01T04:13:58.961Z,101501.87
2019-05-01T04:16:28.424Z,101497.55
2019-05-01T04:18:56.928Z,101508.21
2019-05-01T04:21:27.368Z,101507.53
2019-05-01T04:23:56.949Z,101503.20
2019-05-01T04:26:26.175Z,101508.87
2019-05-01T04:29:14.383Z,101502.06
2019-05-01T04:31:45.124Z,101505.20
2019-05-01T04:34:18.305Z,101505.06
2019-05-01T04:36:50.976Z,101500.55
2019-05-01T04:39:19.567Z,101506.22
2019-05-01T04:41:48.619Z,101502.22
2019-05-01T04:44:17.585Z,101509.54
2019-05-01T04:46:46.472Z,101499.88
2019-05-01T04:49:18.152Z,101506.22
2019-05-01T04:51:47.120Z,101500.89
2019-05-01T04:54:15.750Z,101501.89
2019-05-01T04:56:44.949Z,101508.89
2019-05-01T04:59:13.603Z,101510.23
2019-05-01T05:01:57.192Z,101503.56
2019-05-01T05:04:27.032Z,101503.56
2019-05-01T05:06:56.101Z,101501.89
2019-05-01T05:09:45.104Z,101502.89
2019-05-01T05:12:24.455Z,101498.56
2019-05-01T05:14:58.211Z,101498.89
2019-05-01T05:17:27.072Z,101501.89
2019-05-01T05:19:56.338Z,101507.90
2019-05-01T05:22:26.158Z,101500.23
2019-05-01T05:24:54.591Z,101508.91
2019-05-01T05:27:24.588Z,101502.24
2019-05-01T05:29:56.084Z,101503.91
2019-05-01T05:32:27.204Z,101510.40
2019-05-01T05:34:58.813Z,101502.24
2019-05-01T05:37:31.876Z,101503.73
2019-05-01T05:40:02.258Z,101498.26
2019-05-01T05:42:30.840Z,101503.92
2019-05-01T05:44:59.905Z,101496.59
2019-05-01T05:47:28.945Z,101497.08
2019-05-01T05:49:58.266Z,101503.94
2019-05-01T05:52:43.081Z,101500.08
2019-05-01T05:55:19.146Z,101498.94
2019-05-01T05:57:57.939Z,101494.31
2019-05-01T06:00:45.106Z,101493.65
2019-05-01T06:03:35.135Z,101486.28
2019-05-01T06:06:13.425Z,101492.97
2019-05-01T06:08:44.720Z,101493.30
2019-05-01T06:11:35.360Z,101489.63
2019-05-01T06:14:06.124Z,101494.97
2019-05-01T06:16:40.675Z,101492.30
2019-05-01T06:19:19.930Z,101489.97
2019-05-01T06:22:10.229Z,101490.48
2019-05-01T06:24:49.754Z,101497.15
2019-05-01T06:27:19.111Z,101488.63
2019-05-01T06:29:48.099Z,101486.14
2019-05-01T06:32:16.553Z,101490.28
2019-05-01T06:34:45.068Z,101487.95
2019-05-01T06:37:13.891Z,101477.80
2019-05-01T06:39:47.389Z,101482.96
2019-05-01T06:42:14.981Z,101476.63
2019-05-01T06:45:01.618Z,101480.30
2019-05-01T06:47:31.698Z,101473.30
2019-05-01T06:50:07.543Z,101475.30
2019-05-01T06:52:38.436Z,101481.96
2019-05-01T06:55:07.133Z,101479.62
2019-05-01T06:57:38.429Z,101482.62
2019-05-01T07:00:10.790Z,101488.63
2019-05-01T07:02:40.362Z,101480.66
2019-05-01T07:05:14.759Z,101480.42
2019-05-01T07:07:43.103Z,101476.93
2019-05-01T07:10:10.518Z,101472.74
2019-05-01T07:12:39.525Z,101475.92
2019-05-01T07:15:08.592Z,101472.59
2019-05-01T07:17:37.146Z,101479.59
2019-05-01T07:20:12.039Z,101472.59
2019-05-01T07:22:42.284Z,101479.74
2019-05-01T07:25:10.875Z,101469.59
2019-05-01T07:27:39.528Z,101470.41
2019-05-01T07:30:20.753Z,101480.58
2019-05-01T07:32:49.538Z,101476.91
2019-05-01T07:35:17.965Z,101481.57
2019-05-01T07:37:46.387Z,101473.90
2019-05-01T07:40:15.045Z,101478.89
2019-05-01T07:43:01.688Z,101472.55
2019-05-01T07:45:32.036Z,101479.55
2019-05-01T07:48:01.124Z,101467.89
2019-05-01T07:50:32.717Z,101470.41
2019-05-01T07:53:01.985Z,101476.23
2019-05-01T07:55:36.405Z,101474.58
2019-05-01T07:58:10.571Z,101479.92
2019-05-01T08:00:50.527Z,101478.09
2019-05-01T08:03:19.099Z,101474.63
2019-05-01T08:05:47.529Z,101473.97
2019-05-01T08:08:16.250Z,101477.30
2019-05-01T08:10:44.785Z,101479.64
2019-05-01T08:13:13.228Z,101490.98
2019-05-01T08:15:41.678Z,101482.98
2019-05-01T08:18:14.922Z,101486.16
2019-05-01T08:20:45.817Z,101491.16
2019-05-01T08:23:14.495Z,101480.98
2019-05-01T08:25:43.263Z,101488.64
2019-05-01T08:28:13.408Z,101486.97
2019-05-01T08:30:52.961Z,101485.31
2019-05-01T08:33:44.833Z,101489.32
2019-05-01T08:36:13.455Z,101489.66
2019-05-01T08:38:41.995Z,101493.33
2019-05-01T08:41:10.435Z,101498.81
2019-05-01T08:43:39.376Z,101483.32
2019-05-01T08:46:25.568Z,101495.50
2019-05-01T08:48:55.736Z,101492.16
2019-05-01T08:51:24.413Z,101484.63
2019-05-01T08:53:57.652Z,101490.48
2019-05-01T08:56:23.465Z,101488.63
2019-05-01T08:58:52.237Z,101484.48
2019-05-01T09:01:20.713Z,101483.64
2019-05-01T09:03:49.686Z,101477.97
2019-05-01T09:06:19.520Z,101472.64
2019-05-01T09:08:47.928Z,101479.64
2019-05-01T09:11:16.927Z,101478.31
2019-05-01T09:13:45.361Z,101473.83
2019-05-01T09:16:13.792Z,101476.31
2019-05-01T09:18:42.335Z,101472.64
2019-05-01T09:21:10.756Z,101470.65
2019-05-01T09:23:39.189Z,101478.13
2019-05-01T09:26:18.458Z,101475.80
2019-05-01T09:28:51.327Z,101473.31
2019-05-01T09:31:21.438Z,101478.32
2019-05-01T09:33:50.104Z,101469.65
2019-05-01T09:36:18.518Z,101477.98
2019-05-01T09:38:49.891Z,101485.80
2019-05-01T09:41:17.240Z,101484.33
2019-05-01T09:43:45.757Z,101474.32
2019-05-01T09:46:14.361Z,101480.66
2019-05-01T09:48:43.601Z,101486.48
2019-05-01T09:51:13.670Z,101480.30
2019-05-01T09:53:46.116Z,101479.16
2019-05-01T09:56:22.151Z,101485.64
2019-05-01T09:58:50.575Z,101481.64
2019-05-01T10:01:19.078Z,101484.64
2019-05-01T10:03:49.430Z,101473.97
2019-05-01T10:06:18.856Z,101471.30
2019-05-01T10:08:47.632Z,101467.95
2019-05-01T10:11:16.313Z,101471.92
2019-05-01T10:13:44.982Z,101468.92
2019-05-01T10:16:13.422Z,101470.25
2019-05-01T10:18:42.164Z,101473.91
2019-05-01T10:21:10.600Z,101460.55
2019-05-01T10:23:39.018Z,101464.89
2019-05-01T10:26:09.184Z,101465.55
2019-05-01T10:28:49.945Z,101475.22
2019-05-01T10:31:34.037Z,101457.35
2019-05-01T10:34:12.692Z,101464.03
2019-05-01T10:36:45.456Z,101458.86
2019-05-01T10:39:16.092Z,101453.47
2019-05-01T10:41:46.324Z,101458.78
2019-05-01T10:44:14.300Z,101451.42
2019-05-01T10:46:42.715Z,101443.57
2019-05-01T10:49:11.129Z,101451.78
2019-05-01T10:51:39.746Z,101449.45
2019-05-01T10:54:08.418Z,101443.80
2019-05-01T10:56:36.883Z,101447.13
2019-05-01T10:59:05.783Z,101446.11
2019-05-01T11:01:44.602Z,101443.11
2019-05-01T11:04:13.060Z,101449.12
2019-05-01T11:06:41.599Z,101436.44
2019-05-01T11:09:10.041Z,101442.78
2019-05-01T11:11:38.808Z,101436.64
2019-05-01T11:14:07.319Z,101450.19
2019-05-01T11:16:35.959Z,101444.86
2019-05-01T11:19:05.634Z,101439.53
2019-05-01T11:21:34.073Z,101439.34
2019-05-01T11:24:02.507Z,101433.50
2019-05-01T11:26:31.312Z,101420.42
2019-05-01T11:28:59.752Z,101424.73
2019-05-01T11:31:29.840Z,101416.67
2019-05-01T11:34:05.836Z,101418.12
2019-05-01T11:36:36.083Z,101423.94
2019-05-01T11:39:17.769Z,101407.25
2019-05-01T11:41:50.552Z,101416.62
2019-05-01T11:44:18.971Z,101427.69
2019-05-01T11:46:47.440Z,101425.02
2019-05-01T11:49:16.241Z,101417.66
2019-05-01T11:51:44.661Z,101412.78
2019-05-01T11:54:13.673Z,101412.77
2019-05-01T11:56:42.107Z,101426.59
2019-05-01T11:59:10.575Z,101406.91
2019-05-01T12:01:39.320Z,101410.25
2019-05-01T12:04:07.755Z,101408.91
2019-05-01T12:06:36.183Z,101408.56
2019-05-01T12:09:07.199Z,101404.89
2019-05-01T12:11:37.303Z,101410.27
2019-05-01T12:14:05.820Z,101414.33
2019-05-01T12:16:54.163Z,101406.66
2019-05-01T12:19:25.156Z,101412.66
2019-05-01T12:21:53.720Z,101401.31
2019-05-01T12:24:22.163Z,101394.31
2019-05-01T12:26:50.603Z,101400.98
2019-05-01T12:29:19.429Z,101411.00
2019-05-01T12:31:47.898Z,101389.78
2019-05-01T12:34:16.334Z,101393.31
2019-05-01T12:36:45.607Z,101390.98
2019-05-01T12:39:18.050Z,101384.28
2019-05-01T12:41:50.997Z,101389.28
2019-05-01T12:44:19.512Z,101393.23
2019-05-01T12:46:49.628Z,101396.21
2019-05-01T12:49:18.037Z,101391.17
2019-05-01T12:51:48.098Z,101390.17
2019-05-01T12:54:33.126Z,101387.15
2019-05-01T12:57:02.534Z,101387.80
2019-05-01T12:59:30.989Z,101374.91
2019-05-01T13:01:59.547Z,101378.09
2019-05-01T13:04:29.453Z,101374.32
2019-05-01T13:06:59.358Z,101381.14
2019-05-01T13:09:27.839Z,101378.41
2019-05-01T13:11:56.253Z,101374.89
2019-05-01T13:14:24.702Z,101375.81
2019-05-01T13:16:53.552Z,101364.69
2019-05-01T13:19:22.014Z,101365.67
2019-05-01T13:21:50.514Z,101357.29
2019-05-01T13:24:18.968Z,101357.38
2019-05-01T13:26:49.038Z,101362.83
2019-05-01T13:29:19.302Z,101348.25
2019-05-01T13:31:49.631Z,101344.11
2019-05-01T13:34:18.060Z,101344.64
2019-05-01T13:37:02.409Z,101348.14
2019-05-01T13:39:20.991Z,101347.14
2019-05-01T13:41:49.435Z,101345.49
2019-05-01T13:44:18.062Z,101347.36
2019-05-01T13:46:46.877Z,101337.59
2019-05-01T13:49:15.291Z,101338.39
2019-05-01T13:51:43.729Z,101329.86
2019-05-01T13:54:12.358Z,101329.31
2019-05-01T13:56:41.205Z,101334.08
2019-05-01T13:59:11.116Z,101324.05
2019-05-01T14:01:39.706Z,101323.13
2019-05-01T14:04:08.635Z,101320.22
2019-05-01T14:06:37.059Z,101313.28
2019-05-01T14:09:09.351Z,101305.25
2019-05-01T14:11:37.789Z,101304.92
2019-05-01T14:14:06.202Z,101304.60
2019-05-01T14:16:34.705Z,101297.75
2019-05-01T14:19:03.159Z,101302.18
2019-05-01T14:21:33.221Z,101303.80
2019-05-01T14:24:03.448Z,101299.26
2019-05-01T14:26:33.141Z,101304.00
2019-05-01T14:29:01.577Z,101298.69
2019-05-01T14:31:30.101Z,101300.71
2019-05-01T14:33:58.550Z,101300.06
2019-05-01T14:36:26.974Z,101301.41
2019-05-01T14:38:55.778Z,101305.73
2019-05-01T14:41:25.165Z,101300.55
2019-05-01T14:43:53.685Z,101292.16
2019-05-01T14:46:22.305Z,101291.31
2019-05-01T14:48:51.110Z,101305.34
2019-05-01T14:51:21.699Z,101287.58
2019-05-01T14:53:49.760Z,101287.14
2019-05-01T14:56:18.207Z,101293.42
2019-05-01T14:58:46.688Z,101288.44
2019-05-01T15:01:15.148Z,101289.81
2019-05-01T15:03:43.574Z,101290.91
2019-05-01T15:06:12.123Z,101292.33
2019-05-01T15:08:40.840Z,101285.02
2019-05-01T15:11:09.430Z,101283.08
2019-05-01T15:13:42.195Z,101287.48
2019-05-01T15:16:18.078Z,101287.92
2019-05-01T15:18:48.223Z,101274.09
2019-05-01T15:21:16.647Z,101273.34
2019-05-01T15:23:53.455Z,101267.35
2019-05-01T15:26:15.435Z,101275.38
2019-05-01T15:28:43.868Z,101260.70
2019-05-01T15:31:12.735Z,101260.41
2019-05-01T15:33:41.166Z,101264.09
2019-05-01T15:36:09.844Z,101263.08
2019-05-01T15:38:38.301Z,101272.77
2019-05-01T15:41:24.723Z,101283.12
2019-05-01T15:44:04.041Z,101275.53
2019-05-01T15:46:34.006Z,101268.55
2019-05-01T15:49:02.439Z,101279.66
2019-05-01T15:51:30.961Z,101267.87
2019-05-01T15:53:59.531Z,101265.09
2019-05-01T15:56:27.971Z,101262.26
2019-05-01T15:58:56.472Z,101257.27
2019-05-01T16:01:25.165Z,101257.66
2019-05-01T16:03:53.641Z,101261.48
2019-05-01T16:06:22.136Z,101255.82
2019-05-01T16:08:50.586Z,101249.50
2019-05-01T16:11:23.480Z,101252.17
2019-05-01T16:13:51.939Z,101253.86
2019-05-01T16:16:20.384Z,101253.25
2019-05-01T16:18:48.817Z,101251.09
2019-05-01T16:21:17.589Z,101252.29
2019-05-01T16:23:46.010Z,101248.97
2019-05-01T16:26:14.701Z,101246.64
2019-05-01T16:28:43.175Z,101239.83
2019-05-01T16:31:11.608Z,101242.66
2019-05-01T16:33:40.035Z,101239.68
2019-05-01T16:36:08.849Z,101235.04
2019-05-01T16:38:47.834Z,101236.42
2019-05-01T16:41:16.325Z,101246.78
2019-05-01T16:43:44.919Z,101234.47
2019-05-01T16:46:13.395Z,101247.15
2019-05-01T16:48:41.918Z,101241.83
2019-05-01T16:51:10.385Z,101244.84
2019-05-01T16:53:38.809Z,101233.18
2019-05-01T16:56:07.443Z,101224.19
2019-05-01T16:58:36.189Z,101233.87
2019-05-01T17:01:07.688Z,101230.92
2019-05-01T17:03:56.167Z,101240.93
2019-05-01T17:06:45.360Z,101225.94
2019-05-01T17:09:32.129Z,101218.44
2019-05-01T17:12:00.542Z,101219.63
2019-05-01T17:14:29.266Z,101212.31
2019-05-01T17:16:58.455Z,101220.31
2019-05-01T17:19:26.872Z,101212.30
2019-05-01T17:21:55.293Z,101202.97
2019-05-01T17:24:23.965Z,101205.30
2019-05-01T17:26:52.608Z,101203.97
2019-05-01T17:29:21.025Z,101194.30
2019-05-01T17:31:49.491Z,101202.64
2019-05-01T17:34:17.925Z,101193.65
2019-05-01T17:36:46.366Z,101200.98
2019-05-01T17:39:16.596Z,101201.17
2019-05-01T17:41:45.120Z,101191.33
2019-05-01T17:44:13.558Z,101189.34
2019-05-01T17:46:47.010Z,101193.86
2019-05-01T17:49:12.316Z,101194.53
2019-05-01T17:51:42.756Z,101189.17
2019-05-01T17:54:11.892Z,101190.36
2019-05-01T17:56:40.604Z,101191.52
2019-05-01T17:59:10.704Z,101188.38
2019-05-01T18:01:46.811Z,101186.73
2019-05-01T18:04:29.310Z,101188.73
2019-05-01T18:06:58.276Z,101182.08
2019-05-01T18:09:26.888Z,101184.45
2019-05-01T18:11:55.305Z,101185.61
2019-05-01T18:14:23.764Z,101182.28
2019-05-01T18:16:52.302Z,101179.80
2019-05-01T18:19:20.717Z,101171.47
2019-05-01T18:21:51.853Z,101183.46
2019-05-01T18:24:40.413Z,101172.47
2019-05-01T18:27:20.440Z,101174.14
2019-05-01T18:29:50.596Z,101177.14
2019-05-01T18:32:20.933Z,101173.00
2019-05-01T18:34:50.272Z,101177.48
2019-05-01T18:37:31.150Z,101179.48
2019-05-01T18:40:00.328Z,101175.48
2019-05-01T18:42:28.759Z,101168.82
2019-05-01T18:44:57.350Z,101174.16
2019-05-01T18:47:26.318Z,101165.50
2019-05-01T18:49:55.022Z,101168.83
2019-05-01T18:52:23.448Z,101172.01
2019-05-01T18:54:52.793Z,101170.83
2019-05-01T18:57:21.276Z,101168.83
2019-05-01T18:59:49.695Z,101166.35
2019-05-01T19:02:20.401Z,101169.83
2019-05-01T19:04:48.623Z,101167.35
2019-05-01T19:07:17.063Z,101169.83
2019-05-01T19:09:45.510Z,101160.02
2019-05-01T19:12:15.182Z,101162.50
2019-05-01T19:14:43.617Z,101159.51
2019-05-01T19:17:12.066Z,101156.18
2019-05-01T19:19:40.489Z,101147.86
2019-05-01T19:22:09.249Z,101145.37
2019-05-01T19:24:39.899Z,101152.55
2019-05-01T19:27:07.952Z,101149.22
2019-05-01T19:29:36.482Z,101155.22
2019-05-01T19:32:05.595Z,101144.56
2019-05-01T19:34:34.029Z,101144.90
2019-05-01T19:37:02.539Z,101139.58
2019-05-01T19:39:42.891Z,101134.91
2019-05-01T19:42:01.620Z,101134.25
2019-05-01T19:44:30.043Z,101133.91
2019-05-01T19:46:58.521Z,101133.58
2019-05-01T19:49:29.805Z,101125.27
2019-05-01T19:52:00.685Z,101134.73
2019-05-01T19:54:29.822Z,101127.93
2019-05-01T19:56:57.543Z,101137.25
2019-05-01T19:59:25.968Z,101116.62
2019-05-01T20:01:54.462Z,101114.29
2019-05-01T20:04:22.872Z,101111.30
2019-05-01T20:06:51.303Z,101111.30
2019-05-01T20:09:21.011Z,101110.96
2019-05-01T20:11:49.602Z,101105.97
2019-05-01T20:14:18.144Z,101103.31
2019-05-01T20:16:46.697Z,101104.64
2019-05-01T20:19:17.836Z,101108.63
2019-05-01T20:21:46.266Z,101104.97
2019-05-01T20:24:15.050Z,101103.48
2019-05-01T20:26:43.471Z,101100.64
2019-05-01T20:29:11.885Z,101086.52
2019-05-01T20:31:40.629Z,101096.65
2019-05-01T20:34:12.077Z,101091.66
2019-05-01T20:36:39.212Z,101084.67
2019-05-01T20:39:08.732Z,101079.86
2019-05-01T20:41:37.195Z,101082.34
2019-05-01T20:44:05.697Z,101077.02
2019-05-01T20:46:34.111Z,101080.35
2019-05-01T20:49:06.478Z,101081.02
2019-05-01T20:51:32.782Z,101068.05
2019-05-01T20:54:01.257Z,101066.71
2019-05-01T20:56:31.322Z,101068.05
2019-05-01T20:59:03.292Z,101071.70
2019-05-01T21:01:30.730Z,101062.39
2019-05-01T21:04:13.842Z,101066.70
2019-05-01T21:06:47.081Z,101066.70
2019-05-01T21:09:17.144Z,101056.25
2019-05-01T21:11:48.744Z,101066.23
2019-05-01T21:14:22.758Z,101055.10
2019-05-01T21:16:47.838Z,101051.78
2019-05-01T21:19:16.359Z,101050.11
2019-05-01T21:21:44.831Z,101054.77
2019-05-01T21:24:13.956Z,101051.60
2019-05-01T21:26:43.404Z,101049.12
2019-05-01T21:29:14.000Z,101043.80
2019-05-01T21:31:44.043Z,101044.61
2019-05-01T21:34:14.527Z,101038.81
2019-05-01T21:36:47.604Z,101046.28
2019-05-01T21:39:14.851Z,101038.81
2019-05-01T21:41:43.343Z,101041.14
2019-05-01T21:44:13.155Z,101025.17
2019-05-01T21:46:43.172Z,101032.16
2019-05-01T21:49:12.979Z,101026.18
2019-05-01T21:51:45.940Z,101033.68
2019-05-01T21:54:15.989Z,101033.16
2019-05-01T21:56:42.872Z,101031.17
2019-05-01T21:59:11.379Z,101032.02
2019-05-01T22:01:39.804Z,101016.20
2019-05-01T22:04:08.534Z,101012.22
2019-05-01T22:06:37.133Z,101021.53
2019-05-01T22:09:10.502Z,101007.89
2019-05-01T22:11:39.378Z,101009.22
2019-05-01T22:14:09.497Z,101010.22
2019-05-01T22:16:37.918Z,101000.91
2019-05-01T22:19:08.005Z,101001.23
2019-05-01T22:21:54.520Z,100996.58
2019-05-01T22:24:30.628Z,101000.91
2019-05-01T22:27:03.566Z,101003.56
2019-05-01T22:29:39.914Z,100990.27
2019-05-01T22:32:12.679Z,100993.92
2019-05-01T22:34:45.609Z,100985.94
2019-05-01T22:37:14.023Z,100989.93
2019-05-01T22:39:44.084Z,100975.95
2019-05-01T22:42:12.723Z,100971.64
2019-05-01T22:44:41.142Z,100977.95
2019-05-01T22:47:14.579Z,100968.31
2019-05-01T22:49:39.970Z,100975.81
2019-05-01T22:52:08.394Z,100964.99
2019-05-01T22:54:36.809Z,100958.67
2019-05-01T22:57:05.241Z,100960.52
2019-05-01T22:59:33.664Z,100959.67
2019-05-01T23:02:03.770Z,100957.53
2019-05-01T23:04:32.501Z,100952.69
2019-05-01T23:07:00.984Z,100947.37
2019-05-01T23:09:30.402Z,100950.03
2019-05-01T23:11:59.022Z,100939.76
2019-05-01T23:14:27.968Z,100941.09
2019-05-01T23:17:03.335Z,100942.41
2019-05-01T23:19:32.262Z,100932.78
2019-05-01T23:22:00.820Z,100929.78
2019-05-01T23:24:29.298Z,100924.13
2019-05-01T23:26:57.754Z,100922.14
2019-05-01T23:29:26.521Z,100919.48
2019-05-01T23:31:55.510Z,100918.63
2019-05-01T23:34:26.075Z,100906.84
2019-05-01T23:36:54.128Z,100905.52
2019-05-01T23:39:22.587Z,100898.88
2019-05-01T23:41:51.183Z,100889.89
2019-05-01T23:44:19.679Z,100887.05
2019-05-01T23:46:48.086Z,100884.23
2019-05-01T23:49:17.244Z,100885.89
2019-05-01T23:51:45.669Z,100877.91
2019-05-01T23:54:14.097Z,100874.25
2019-05-01T23:56:42.546Z,100866.27
2019-05-01T23:59:10.959Z,100865.08
